createdAt,value
2018-05-23T00:00:21.696Z,18.07
2018-05-23T00:01:21.721Z,18.06
2018-05-23T00:02:21.740Z,17.79
2018-05-23T00:03:21.769Z,17.85
2018-05-23T00:04:21.794Z,17.97
2018-05-23T00:05:21.843Z,18.02
2018-05-23T00:06:21.892Z,18.03
2018-05-23T00:07:21.857Z,18.02
2018-05-23T00:08:21.884Z,18.04
2018-05-23T00:09:21.906Z,17.94
2018-05-23T00:10:21.932Z,17.84
2018-05-23T00:11:21.965Z,17.92
2018-05-23T00:12:21.988Z,17.92
2018-05-23T00:13:22.009Z,17.74
2018-05-23T00:14:22.024Z,17.76
2018-05-23T00:15:22.059Z,17.78
2018-05-23T00:16:22.083Z,17.81
2018-05-23T00:17:22.111Z,17.91
2018-05-23T00:18:22.130Z,18.02
2018-05-23T00:19:22.149Z,17.95
2018-05-23T00:20:22.170Z,18.04
2018-05-23T00:21:22.205Z,17.95
2018-05-23T00:22:22.227Z,18.09
2018-05-23T00:23:22.249Z,18.03
2018-05-23T00:24:22.280Z,17.81
2018-05-23T00:25:22.292Z,17.73
2018-05-23T00:26:22.322Z,17.76
2018-05-23T00:27:22.350Z,17.82
2018-05-23T00:28:22.380Z,17.74
2018-05-23T00:29:22.398Z,17.78
2018-05-23T00:30:22.417Z,17.87
2018-05-23T00:31:22.439Z,17.78
2018-05-23T00:32:22.472Z,17.88
2018-05-23T00:33:22.494Z,17.85
2018-05-23T00:34:22.511Z,17.81
2018-05-23T00:35:22.540Z,17.84
2018-05-23T00:36:22.569Z,17.84
2018-05-23T00:37:22.584Z,17.89
2018-05-23T00:38:22.609Z,17.95
2018-05-23T00:39:22.634Z,17.78
2018-05-23T00:40:22.683Z,17.79
2018-05-23T00:41:22.690Z,17.84
2018-05-23T00:42:22.705Z,17.92
2018-05-23T00:43:22.725Z,17.81
2018-05-23T00:44:22.767Z,17.71
2018-05-23T00:45:22.782Z,17.82
2018-05-23T00:46:22.804Z,17.74
2018-05-23T00:47:22.834Z,17.78
2018-05-23T00:48:22.867Z,17.81
2018-05-23T00:49:22.883Z,17.71
2018-05-23T00:50:22.959Z,17.74
2018-05-23T00:51:22.933Z,17.71
2018-05-23T00:52:22.958Z,17.73
2018-05-23T00:53:22.973Z,17.84
2018-05-23T00:54:22.998Z,17.73
2018-05-23T00:55:23.021Z,17.81
2018-05-23T00:56:23.043Z,17.74
2018-05-23T00:57:23.072Z,17.62
2018-05-23T00:58:23.107Z,17.69
2018-05-23T00:59:23.120Z,17.74
2018-05-23T01:00:23.143Z,17.74
2018-05-23T01:01:23.181Z,17.63
2018-05-23T01:02:23.191Z,17.51
2018-05-23T01:03:23.209Z,17.51
2018-05-23T01:04:23.322Z,17.50
2018-05-23T01:05:23.312Z,17.38
2018-05-23T01:06:23.307Z,17.51
2018-05-23T01:07:23.310Z,17.41
2018-05-23T01:08:23.332Z,17.66
2018-05-23T01:09:23.359Z,17.73
2018-05-23T01:10:23.382Z,17.71
2018-05-23T01:11:23.406Z,17.79
2018-05-23T01:12:23.426Z,17.85
2018-05-23T01:13:23.462Z,17.79
2018-05-23T01:14:23.478Z,17.85
2018-05-23T01:15:23.502Z,17.84
2018-05-23T01:16:23.526Z,17.82
2018-05-23T01:17:23.623Z,17.73
2018-05-23T01:18:23.573Z,17.36
2018-05-23T01:19:23.599Z,17.35
2018-05-23T01:20:23.631Z,17.62
2018-05-23T01:21:23.648Z,17.64
2018-05-23T01:22:23.675Z,17.62
2018-05-23T01:23:23.700Z,17.50
2018-05-23T01:24:23.721Z,17.66
2018-05-23T01:25:23.740Z,17.59
2018-05-23T01:26:23.764Z,17.70
2018-05-23T01:27:23.797Z,17.63
2018-05-23T01:28:23.818Z,17.70
2018-05-23T01:29:23.846Z,17.79
2018-05-23T01:30:23.873Z,17.79
2018-05-23T01:31:23.887Z,17.74
2018-05-23T01:32:23.911Z,17.74
2018-05-23T01:33:23.939Z,17.81
2018-05-23T01:34:23.966Z,17.87
2018-05-23T01:35:23.984Z,17.62
2018-05-23T01:36:24.008Z,17.71
2018-05-23T01:37:24.032Z,17.79
2018-05-23T01:38:24.144Z,17.73
2018-05-23T01:39:24.080Z,17.74
2018-05-23T01:40:24.105Z,17.71
2018-05-23T01:41:24.152Z,17.79
2018-05-23T01:42:24.152Z,17.70
2018-05-23T01:43:24.176Z,17.76
2018-05-23T01:44:24.198Z,17.78
2018-05-23T01:45:24.222Z,17.70
2018-05-23T01:46:24.275Z,17.79
2018-05-23T01:47:24.272Z,17.81
2018-05-23T01:48:24.301Z,17.74
2018-05-23T01:49:24.322Z,17.74
2018-05-23T01:50:24.340Z,17.76
2018-05-23T01:51:24.415Z,17.81
2018-05-23T01:52:24.393Z,17.73
2018-05-23T01:53:24.450Z,17.78
2018-05-23T01:54:24.438Z,17.76
2018-05-23T01:55:24.460Z,17.71
2018-05-23T01:56:24.485Z,17.81
2018-05-23T01:57:24.513Z,17.71
2018-05-23T01:58:24.535Z,17.78
2018-05-23T01:59:24.568Z,17.85
2018-05-23T02:00:24.582Z,17.84
2018-05-23T02:01:24.612Z,17.81
2018-05-23T02:02:24.630Z,17.76
2018-05-23T02:03:24.656Z,17.78
2018-05-23T02:04:24.690Z,17.76
2018-05-23T02:05:24.702Z,17.78
2018-05-23T02:06:24.728Z,17.78
2018-05-23T02:07:24.752Z,17.79
2018-05-23T02:08:24.774Z,17.76
2018-05-23T02:09:24.801Z,17.76
2018-05-23T02:10:24.831Z,17.79
2018-05-23T02:11:24.856Z,17.71
2018-05-23T02:12:24.868Z,17.78
2018-05-23T02:13:24.899Z,17.70
2018-05-23T02:14:24.927Z,17.74
2018-05-23T02:15:24.939Z,17.78
2018-05-23T02:16:24.970Z,17.79
2018-05-23T02:17:24.996Z,17.71
2018-05-23T02:18:25.010Z,17.70
2018-05-23T02:19:25.047Z,17.69
2018-05-23T02:20:25.126Z,17.71
2018-05-23T02:21:25.091Z,17.71
2018-05-23T02:22:25.117Z,17.70
2018-05-23T02:23:25.135Z,17.67
2018-05-23T02:24:25.157Z,17.74
2018-05-23T02:25:25.185Z,17.82
2018-05-23T02:26:25.202Z,17.76
2018-05-23T02:27:25.233Z,17.81
2018-05-23T02:28:25.256Z,17.79
2018-05-23T02:29:25.286Z,17.71
2018-05-23T02:30:25.312Z,17.69
2018-05-23T02:31:25.329Z,17.64
2018-05-23T02:32:25.354Z,17.67
2018-05-23T02:33:25.380Z,17.70
2018-05-23T02:34:25.403Z,17.76
2018-05-23T02:35:25.431Z,17.76
2018-05-23T02:36:25.447Z,17.71
2018-05-23T02:37:25.475Z,17.57
2018-05-23T02:38:25.492Z,17.69
2018-05-23T02:39:25.536Z,17.76
2018-05-23T02:40:25.541Z,17.74
2018-05-23T02:41:25.570Z,17.76
2018-05-23T02:42:25.592Z,17.76
2018-05-23T02:43:25.618Z,17.59
2018-05-23T02:44:25.688Z,17.57
2018-05-23T02:45:25.660Z,17.78
2018-05-23T02:46:25.690Z,17.79
2018-05-23T02:47:25.711Z,17.74
2018-05-23T02:48:25.731Z,17.62
2018-05-23T02:49:25.764Z,17.62
2018-05-23T02:50:25.800Z,17.74
2018-05-23T02:51:25.805Z,17.74
2018-05-23T02:52:25.841Z,17.57
2018-05-23T02:53:25.860Z,17.63
2018-05-23T02:54:25.880Z,17.62
2018-05-23T02:55:25.904Z,17.55
2018-05-23T02:56:25.931Z,17.55
2018-05-23T02:57:25.955Z,17.43
2018-05-23T02:58:25.975Z,17.36
2018-05-23T02:59:25.997Z,17.30
2018-05-23T03:00:26.016Z,17.46
2018-05-23T03:01:26.046Z,17.35
2018-05-23T03:02:26.072Z,17.54
2018-05-23T03:03:26.095Z,17.63
2018-05-23T03:04:26.121Z,17.66
2018-05-23T03:05:26.141Z,17.59
2018-05-23T03:06:26.160Z,17.69
2018-05-23T03:07:26.191Z,17.43
2018-05-23T03:08:26.208Z,17.44
2018-05-23T03:09:26.241Z,17.43
2018-05-23T03:10:26.263Z,17.48
2018-05-23T03:11:26.282Z,17.53
2018-05-23T03:12:26.307Z,17.62
2018-05-23T03:13:26.333Z,17.78
2018-05-23T03:14:26.368Z,17.71
2018-05-23T03:15:26.382Z,17.71
2018-05-23T03:16:26.448Z,17.64
2018-05-23T03:17:26.429Z,17.76
2018-05-23T03:18:26.452Z,17.63
2018-05-23T03:19:26.479Z,17.67
2018-05-23T03:20:26.503Z,17.71
2018-05-23T03:21:26.532Z,17.46
2018-05-23T03:22:26.561Z,17.46
2018-05-23T03:23:26.577Z,17.36
2018-05-23T03:24:26.601Z,17.46
2018-05-23T03:25:26.625Z,17.38
2018-05-23T03:26:26.641Z,17.46
2018-05-23T03:27:26.683Z,17.36
2018-05-23T03:28:26.691Z,17.43
2018-05-23T03:29:26.720Z,17.29
2018-05-23T03:30:26.740Z,17.30
2018-05-23T03:31:26.792Z,17.47
2018-05-23T03:32:26.789Z,17.36
2018-05-23T03:33:26.809Z,17.51
2018-05-23T03:34:26.841Z,17.53
2018-05-23T03:35:26.860Z,17.57
2018-05-23T03:36:26.890Z,17.67
2018-05-23T03:37:26.915Z,17.67
2018-05-23T03:38:26.932Z,17.50
2018-05-23T03:39:26.950Z,17.36
2018-05-23T03:40:26.983Z,17.30
2018-05-23T03:41:27.004Z,17.47
2018-05-23T03:42:27.030Z,17.40
2018-05-23T03:43:27.058Z,17.47
2018-05-23T03:44:27.083Z,17.40
2018-05-23T03:45:27.100Z,17.40
2018-05-23T03:46:27.131Z,17.25
2018-05-23T03:47:27.148Z,17.23
2018-05-23T03:48:27.175Z,17.33
2018-05-23T03:49:27.195Z,17.38
2018-05-23T03:50:27.221Z,17.51
2018-05-23T03:51:27.238Z,17.53
2018-05-23T03:52:27.268Z,17.57
2018-05-23T03:53:27.291Z,17.53
2018-05-23T03:54:27.315Z,17.55
2018-05-23T03:55:27.344Z,17.62
2018-05-23T03:56:27.366Z,17.54
2018-05-23T03:57:27.385Z,17.64
2018-05-23T03:58:27.404Z,17.63
2018-05-23T03:59:27.434Z,17.79
2018-05-23T04:00:27.460Z,17.74
2018-05-23T04:01:27.482Z,17.76
2018-05-23T04:02:27.504Z,17.62
2018-05-23T04:03:27.527Z,17.70
2018-05-23T04:04:27.559Z,17.59
2018-05-23T04:05:27.572Z,17.66
2018-05-23T04:06:27.602Z,17.59
2018-05-23T04:07:27.625Z,17.57
2018-05-23T04:08:27.644Z,17.51
2018-05-23T04:09:27.677Z,17.47
2018-05-23T04:10:27.709Z,17.50
2018-05-23T04:11:27.780Z,17.63
2018-05-23T04:12:27.749Z,17.62
2018-05-23T04:13:27.770Z,17.62
2018-05-23T04:14:27.789Z,17.44
2018-05-23T04:15:27.896Z,17.46
2018-05-23T04:16:27.839Z,17.38
2018-05-23T04:17:27.861Z,17.38
2018-05-23T04:18:27.892Z,17.46
2018-05-23T04:19:27.913Z,17.44
2018-05-23T04:20:27.930Z,17.54
2018-05-23T04:21:27.952Z,17.63
2018-05-23T04:22:27.997Z,17.59
2018-05-23T04:23:28.007Z,17.64
2018-05-23T04:24:28.036Z,17.53
2018-05-23T04:25:28.060Z,17.55
2018-05-23T04:26:28.087Z,17.57
2018-05-23T04:27:28.102Z,17.41
2018-05-23T04:28:28.126Z,17.43
2018-05-23T04:29:28.153Z,17.54
2018-05-23T04:30:28.179Z,17.51
2018-05-23T04:31:28.204Z,17.53
2018-05-23T04:32:28.237Z,17.55
2018-05-23T04:33:28.250Z,17.50
2018-05-23T04:34:28.276Z,17.50
2018-05-23T04:35:28.293Z,17.54
2018-05-23T04:36:28.316Z,17.63
2018-05-23T04:37:28.352Z,17.62
2018-05-23T04:38:28.358Z,17.57
2018-05-23T04:39:28.382Z,17.63
2018-05-23T04:40:28.427Z,17.44
2018-05-23T04:41:28.434Z,17.36
2018-05-23T04:42:28.477Z,17.51
2018-05-23T04:43:28.489Z,17.48
2018-05-23T04:44:28.506Z,17.44
2018-05-23T04:45:28.525Z,17.43
2018-05-23T04:46:28.574Z,17.46
2018-05-23T04:47:28.578Z,17.57
2018-05-23T04:48:28.613Z,17.71
2018-05-23T04:49:28.664Z,17.63
2018-05-23T04:50:28.662Z,17.67
2018-05-23T04:51:28.696Z,17.63
2018-05-23T04:52:28.767Z,17.53
2018-05-23T04:53:28.721Z,17.59
2018-05-23T04:54:28.746Z,17.57
2018-05-23T04:55:28.775Z,17.59
2018-05-23T04:56:28.797Z,17.59
2018-05-23T04:57:28.823Z,17.67
2018-05-23T04:58:28.845Z,17.78
2018-05-23T04:59:28.869Z,17.73
2018-05-23T05:00:28.895Z,17.81
2018-05-23T05:01:28.915Z,17.74
2018-05-23T05:02:28.940Z,17.73
2018-05-23T05:03:28.972Z,17.73
2018-05-23T05:04:28.985Z,17.69
2018-05-23T05:05:29.008Z,17.76
2018-05-23T05:06:29.046Z,17.82
2018-05-23T05:07:29.061Z,17.73
2018-05-23T05:08:29.079Z,17.76
2018-05-23T05:09:29.114Z,17.82
2018-05-23T05:10:29.141Z,17.78
2018-05-23T05:11:29.158Z,17.85
2018-05-23T05:12:29.184Z,17.82
2018-05-23T05:13:29.204Z,17.73
2018-05-23T05:14:29.223Z,17.74
2018-05-23T05:15:29.257Z,17.82
2018-05-23T05:16:29.274Z,17.74
2018-05-23T05:17:29.298Z,17.67
2018-05-23T05:18:29.324Z,17.71
2018-05-23T05:19:29.346Z,17.74
2018-05-23T05:20:29.366Z,17.62
2018-05-23T05:21:29.413Z,17.67
2018-05-23T05:22:29.413Z,17.79
2018-05-23T05:23:29.439Z,17.76
2018-05-23T05:24:29.474Z,17.74
2018-05-23T05:25:29.489Z,17.64
2018-05-23T05:26:29.515Z,17.55
2018-05-23T05:27:29.549Z,17.54
2018-05-23T05:28:29.563Z,17.57
2018-05-23T05:29:29.580Z,17.63
2018-05-23T05:30:29.613Z,17.71
2018-05-23T05:31:29.636Z,17.67
2018-05-23T05:32:29.661Z,17.71
2018-05-23T05:33:29.677Z,17.78
2018-05-23T05:34:29.703Z,17.78
2018-05-23T05:35:29.735Z,17.76
2018-05-23T05:36:29.758Z,17.76
2018-05-23T05:37:29.778Z,17.59
2018-05-23T05:38:29.795Z,17.53
2018-05-23T05:39:29.825Z,17.67
2018-05-23T05:40:29.873Z,17.73
2018-05-23T05:41:29.878Z,17.73
2018-05-23T05:42:29.915Z,17.79
2018-05-23T05:43:29.923Z,17.82
2018-05-23T05:44:29.947Z,17.85
2018-05-23T05:45:29.971Z,17.74
2018-05-23T05:46:29.994Z,17.73
2018-05-23T05:47:30.020Z,17.85
2018-05-23T05:48:30.044Z,17.82
2018-05-23T05:49:30.063Z,17.81
2018-05-23T05:50:30.091Z,17.82
2018-05-23T05:51:30.109Z,17.87
2018-05-23T05:52:30.138Z,17.82
2018-05-23T05:53:30.156Z,17.95
2018-05-23T05:54:30.189Z,17.78
2018-05-23T05:55:30.208Z,17.97
2018-05-23T05:56:30.245Z,17.94
2018-05-23T05:57:30.260Z,18.02
2018-05-23T05:58:30.281Z,18.00
2018-05-23T05:59:30.299Z,17.99
2018-05-23T06:00:30.334Z,17.99
2018-05-23T06:01:30.362Z,17.78
2018-05-23T06:02:30.384Z,17.71
2018-05-23T06:03:30.406Z,17.87
2018-05-23T06:04:30.426Z,17.88
2018-05-23T06:05:30.451Z,17.82
2018-05-23T06:06:30.474Z,17.95
2018-05-23T06:07:30.503Z,18.00
2018-05-23T06:08:30.521Z,17.76
2018-05-23T06:09:30.621Z,17.78
2018-05-23T06:10:30.574Z,17.71
2018-05-23T06:11:30.609Z,17.81
2018-05-23T06:12:30.616Z,17.87
2018-05-23T06:13:30.640Z,17.81
2018-05-23T06:14:30.670Z,17.73
2018-05-23T06:15:30.696Z,17.81
2018-05-23T06:16:30.755Z,17.78
2018-05-23T06:17:30.749Z,17.71
2018-05-23T06:18:30.768Z,17.79
2018-05-23T06:19:30.784Z,17.69
2018-05-23T06:20:30.815Z,17.70
2018-05-23T06:21:30.837Z,17.67
2018-05-23T06:22:30.870Z,17.74
2018-05-23T06:23:30.883Z,17.82
2018-05-23T06:24:30.936Z,17.76
2018-05-23T06:25:30.936Z,17.55
2018-05-23T06:26:30.958Z,17.62
2018-05-23T06:27:30.986Z,17.71
2018-05-23T06:28:31.011Z,17.71
2018-05-23T06:29:31.031Z,17.78
2018-05-23T06:30:31.178Z,17.84
2018-05-23T06:31:31.076Z,17.85
2018-05-23T06:32:31.114Z,17.84
2018-05-23T06:33:31.194Z,17.95
2018-05-23T06:34:31.152Z,17.81
2018-05-23T06:35:31.185Z,17.76
2018-05-23T06:36:31.332Z,17.76
2018-05-23T06:37:31.219Z,17.69
2018-05-23T06:38:31.249Z,17.82
2018-05-23T06:39:31.277Z,17.84
2018-05-23T06:40:31.303Z,17.87
2018-05-23T06:41:31.365Z,17.97
2018-05-23T06:42:31.348Z,18.17
2018-05-23T06:43:31.379Z,18.22
2018-05-23T06:44:31.394Z,17.94
2018-05-23T06:45:31.425Z,17.94
2018-05-23T06:46:31.444Z,17.94
2018-05-23T06:47:31.473Z,17.87
2018-05-23T06:48:31.496Z,18.03
2018-05-23T06:49:31.518Z,17.88
2018-05-23T06:50:31.541Z,17.87
2018-05-23T06:51:31.582Z,17.78
2018-05-23T06:52:31.587Z,17.76
2018-05-23T06:53:31.618Z,17.82
2018-05-23T06:54:31.636Z,17.94
2018-05-23T06:55:31.701Z,17.81
2018-05-23T06:56:31.693Z,17.94
2018-05-23T06:57:31.727Z,17.81
2018-05-23T06:58:31.752Z,17.81
2018-05-23T06:59:31.761Z,17.84
2018-05-23T07:00:31.787Z,17.95
2018-05-23T07:01:31.813Z,18.02
2018-05-23T07:02:31.836Z,18.00
2018-05-23T07:03:31.888Z,17.97
2018-05-23T07:04:31.880Z,18.00
2018-05-23T07:05:31.917Z,18.04
2018-05-23T07:06:31.936Z,17.94
2018-05-23T07:07:31.961Z,18.04
2018-05-23T07:08:31.986Z,17.92
2018-05-23T07:09:32.031Z,17.91
2018-05-23T07:10:32.027Z,17.92
2018-05-23T07:11:32.070Z,17.99
2018-05-23T07:12:32.076Z,18.04
2018-05-23T07:13:32.111Z,18.00
2018-05-23T07:14:32.117Z,18.15
2018-05-23T07:15:32.157Z,18.15
2018-05-23T07:16:32.172Z,18.00
2018-05-23T07:17:32.204Z,17.95
2018-05-23T07:18:32.224Z,18.03
2018-05-23T07:19:32.242Z,18.18
2018-05-23T07:20:32.271Z,18.13
2018-05-23T07:21:32.303Z,18.02
2018-05-23T07:22:32.331Z,18.02
2018-05-23T07:23:32.372Z,18.00
2018-05-23T07:24:32.374Z,17.92
2018-05-23T07:25:32.422Z,17.97
2018-05-23T07:26:32.425Z,17.94
2018-05-23T07:27:32.457Z,18.03
2018-05-23T07:28:32.465Z,17.97
2018-05-23T07:29:32.488Z,17.94
2018-05-23T07:30:32.504Z,17.95
2018-05-23T07:31:32.548Z,17.85
2018-05-23T07:32:32.562Z,17.74
2018-05-23T07:33:32.589Z,17.78
2018-05-23T07:34:32.601Z,17.81
2018-05-23T07:35:32.646Z,17.94
2018-05-23T07:36:32.655Z,18.03
2018-05-23T07:37:32.686Z,18.07
2018-05-23T07:38:32.707Z,18.12
2018-05-23T07:39:32.733Z,18.12
2018-05-23T07:40:32.755Z,18.15
2018-05-23T07:41:32.778Z,18.15
2018-05-23T07:42:32.801Z,18.13
2018-05-23T07:43:32.831Z,18.15
2018-05-23T07:44:32.845Z,18.21
2018-05-23T07:45:32.878Z,18.21
2018-05-23T07:46:32.903Z,18.15
2018-05-23T07:47:32.920Z,18.24
2018-05-23T07:48:32.948Z,18.25
2018-05-23T07:49:32.972Z,18.22
2018-05-23T07:50:33.015Z,18.17
2018-05-23T07:51:33.023Z,18.18
2018-05-23T07:52:33.046Z,18.17
2018-05-23T07:53:33.061Z,18.02
2018-05-23T07:54:33.095Z,17.95
2018-05-23T07:55:33.120Z,18.09
2018-05-23T07:56:33.225Z,18.19
2018-05-23T07:57:33.161Z,18.17
2018-05-23T07:58:33.193Z,18.10
2018-05-23T07:59:33.227Z,18.13
2018-05-23T08:00:33.268Z,18.06
2018-05-23T08:01:33.275Z,18.10
2018-05-23T08:02:33.285Z,18.00
2018-05-23T08:03:33.311Z,18.06
2018-05-23T08:04:33.336Z,18.04
2018-05-23T08:05:33.359Z,18.17
2018-05-23T08:06:33.380Z,18.03
2018-05-23T08:07:33.406Z,18.06
2018-05-23T08:08:33.463Z,18.13
2018-05-23T08:09:33.461Z,18.09
2018-05-23T08:10:33.475Z,18.07
2018-05-23T08:11:33.507Z,18.21
2018-05-23T08:12:33.536Z,18.28
2018-05-23T08:13:33.553Z,18.36
2018-05-23T08:14:33.802Z,18.42
2018-05-23T08:15:33.596Z,18.36
2018-05-23T08:16:33.625Z,18.46
2018-05-23T08:17:33.654Z,18.34
2018-05-23T08:18:33.677Z,18.33
2018-05-23T08:19:33.709Z,18.27
2018-05-23T08:20:33.726Z,18.13
2018-05-23T08:21:33.761Z,18.25
2018-05-23T08:22:33.771Z,18.28
2018-05-23T08:23:33.800Z,18.29
2018-05-23T08:24:33.825Z,18.37
2018-05-23T08:25:33.844Z,18.34
2018-05-23T08:26:33.880Z,18.31
2018-05-23T08:27:33.897Z,18.40
2018-05-23T08:28:33.917Z,18.29
2018-05-23T08:29:33.949Z,18.33
2018-05-23T08:30:33.967Z,18.31
2018-05-23T08:31:33.989Z,18.42
2018-05-23T08:32:34.046Z,18.57
2018-05-23T08:33:34.039Z,18.57
2018-05-23T08:34:34.068Z,18.54
2018-05-23T08:35:34.097Z,18.58
2018-05-23T08:36:34.116Z,18.67
2018-05-23T08:37:34.134Z,18.61
2018-05-23T08:38:34.165Z,18.40
2018-05-23T08:39:34.190Z,18.44
2018-05-23T08:40:34.213Z,18.49
2018-05-23T08:41:34.243Z,18.55
2018-05-23T08:42:34.276Z,18.57
2018-05-23T08:43:34.292Z,18.62
2018-05-23T08:44:34.323Z,18.47
2018-05-23T08:45:34.344Z,18.46
2018-05-23T08:46:34.365Z,18.43
2018-05-23T08:47:34.449Z,18.49
2018-05-23T08:48:34.413Z,18.44
2018-05-23T08:49:34.439Z,18.43
2018-05-23T08:50:34.460Z,18.58
2018-05-23T08:51:34.492Z,18.50
2018-05-23T08:52:34.506Z,18.55
2018-05-23T08:53:34.557Z,18.65
2018-05-23T08:54:34.553Z,18.72
2018-05-23T08:55:34.582Z,18.80
2018-05-23T08:56:34.607Z,18.82
2018-05-23T08:57:34.626Z,18.86
2018-05-23T08:58:34.656Z,18.91
2018-05-23T08:59:34.692Z,18.95
2018-05-23T09:00:34.703Z,18.79
2018-05-23T09:01:34.733Z,18.76
2018-05-23T09:02:34.753Z,18.87
2018-05-23T09:03:34.778Z,18.98
2018-05-23T09:04:34.801Z,18.79
2018-05-23T09:05:34.837Z,18.90
2018-05-23T09:06:35.085Z,19.01
2018-05-23T09:07:34.882Z,18.99
2018-05-23T09:08:34.913Z,18.94
2018-05-23T09:09:34.926Z,18.98
2018-05-23T09:10:34.965Z,19.08
2018-05-23T09:11:34.979Z,19.08
2018-05-23T09:12:35.081Z,19.21
2018-05-23T09:13:35.037Z,19.29
2018-05-23T09:14:35.050Z,19.42
2018-05-23T09:15:35.085Z,19.53
2018-05-23T09:16:35.115Z,19.55
2018-05-23T09:17:35.139Z,19.75
2018-05-23T09:18:35.150Z,19.61
2018-05-23T09:19:35.172Z,19.79
2018-05-23T09:20:35.198Z,19.83
2018-05-23T09:21:35.234Z,19.65
2018-05-23T09:22:35.255Z,19.66
2018-05-23T09:23:35.273Z,19.75
2018-05-23T09:24:35.299Z,19.78
2018-05-23T09:25:35.479Z,19.83
2018-05-23T09:26:35.351Z,19.86
2018-05-23T09:27:35.373Z,19.75
2018-05-23T09:28:35.434Z,19.73
2018-05-23T09:29:35.428Z,19.70
2018-05-23T09:30:35.451Z,19.79
2018-05-23T09:31:35.474Z,19.80
2018-05-23T09:32:35.513Z,19.79
2018-05-23T09:33:35.531Z,19.69
2018-05-23T09:34:35.550Z,19.75
2018-05-23T09:35:35.577Z,19.78
2018-05-23T09:36:35.599Z,19.87
2018-05-23T09:37:35.624Z,19.91
2018-05-23T09:38:35.712Z,19.87
2018-05-23T09:39:35.679Z,19.90
2018-05-23T09:40:35.717Z,19.84
2018-05-23T09:41:35.726Z,19.94
2018-05-23T09:42:35.751Z,19.97
2018-05-23T09:43:35.778Z,20.00
2018-05-23T09:44:35.822Z,20.05
2018-05-23T09:45:35.846Z,20.02
2018-05-23T09:46:35.851Z,20.03
2018-05-23T09:47:35.881Z,19.94
2018-05-23T09:48:35.915Z,19.90
2018-05-23T09:49:35.946Z,20.05
2018-05-23T09:50:36.019Z,20.03
2018-05-23T09:51:35.990Z,20.06
2018-05-23T09:52:36.017Z,20.05
2018-05-23T09:53:36.027Z,20.13
2018-05-23T09:54:36.057Z,20.09
2018-05-23T09:55:36.089Z,20.05
2018-05-23T09:56:36.117Z,20.08
2018-05-23T09:57:36.132Z,20.05
2018-05-23T09:58:36.157Z,20.24
2018-05-23T09:59:36.184Z,19.97
2018-05-23T10:00:36.224Z,19.95
2018-05-23T10:01:36.346Z,20.06
2018-05-23T10:02:36.263Z,20.05
2018-05-23T10:03:36.283Z,20.06
2018-05-23T10:04:36.330Z,20.15
2018-05-23T10:05:36.341Z,20.08
2018-05-23T10:06:36.371Z,20.23
2018-05-23T10:07:36.399Z,20.34
2018-05-23T10:08:36.424Z,20.34
2018-05-23T10:09:36.448Z,20.38
2018-05-23T10:10:36.487Z,20.28
2018-05-23T10:11:36.501Z,20.16
2018-05-23T10:12:36.531Z,20.23
2018-05-23T10:13:36.541Z,20.41
2018-05-23T10:14:36.572Z,20.50
2018-05-23T10:15:36.614Z,20.50
2018-05-23T10:16:36.619Z,20.64
2018-05-23T10:17:36.660Z,20.58
2018-05-23T10:18:36.676Z,20.42
2018-05-23T10:19:36.705Z,20.50
2018-05-23T10:20:36.731Z,20.53
2018-05-23T10:21:36.942Z,20.54
2018-05-23T10:22:36.781Z,20.58
2018-05-23T10:23:36.800Z,20.54
2018-05-23T10:24:36.829Z,20.54
2018-05-23T10:25:36.864Z,20.56
2018-05-23T10:26:36.889Z,20.50
2018-05-23T10:27:36.911Z,20.50
2018-05-23T10:28:36.935Z,20.49
2018-05-23T10:29:36.958Z,20.54
2018-05-23T10:30:36.979Z,20.64
2018-05-23T10:31:37.029Z,20.74
2018-05-23T10:32:37.045Z,20.66
2018-05-23T10:33:37.070Z,20.72
2018-05-23T10:34:37.122Z,20.66
2018-05-23T10:35:37.118Z,20.74
2018-05-23T10:36:37.140Z,20.72
2018-05-23T10:37:37.250Z,20.77
2018-05-23T10:38:37.202Z,20.64
2018-05-23T10:39:37.214Z,20.62
2018-05-23T10:40:37.248Z,20.61
2018-05-23T10:41:37.276Z,20.62
2018-05-23T10:42:37.299Z,20.54
2018-05-23T10:43:37.322Z,20.49
2018-05-23T10:44:37.353Z,20.62
2018-05-23T10:45:37.370Z,20.62
2018-05-23T10:46:37.401Z,20.65
2018-05-23T10:47:37.447Z,20.66
2018-05-23T10:48:37.455Z,20.71
2018-05-23T10:49:37.542Z,20.80
2018-05-23T10:50:37.503Z,20.83
2018-05-23T10:51:37.533Z,20.74
2018-05-23T10:52:37.557Z,20.66
2018-05-23T10:53:37.578Z,20.76
2018-05-23T10:54:37.610Z,20.64
2018-05-23T10:55:37.635Z,20.76
2018-05-23T10:56:37.655Z,20.66
2018-05-23T10:57:37.684Z,20.65
2018-05-23T10:58:37.709Z,20.62
2018-05-23T10:59:37.735Z,20.66
2018-05-23T11:00:37.759Z,20.72
2018-05-23T11:01:37.797Z,20.74
2018-05-23T11:02:37.817Z,20.76
2018-05-23T11:03:37.843Z,20.74
2018-05-23T11:04:37.891Z,20.80
2018-05-23T11:05:37.910Z,20.87
2018-05-23T11:06:37.920Z,20.65
2018-05-23T11:07:37.947Z,20.80
2018-05-23T11:08:37.972Z,20.87
2018-05-23T11:09:38.002Z,20.90
2018-05-23T11:10:38.020Z,20.98
2018-05-23T11:11:38.052Z,20.99
2018-05-23T11:12:38.082Z,20.96
2018-05-23T11:13:38.107Z,21.04
2018-05-23T11:14:38.130Z,21.09
2018-05-23T11:15:38.153Z,21.06
2018-05-23T11:16:38.181Z,21.06
2018-05-23T11:17:38.214Z,21.08
2018-05-23T11:18:38.245Z,21.06
2018-05-23T11:19:38.280Z,21.05
2018-05-23T11:20:38.285Z,21.09
2018-05-23T11:21:38.318Z,21.06
2018-05-23T11:22:38.336Z,21.17
2018-05-23T11:23:38.368Z,21.16
2018-05-23T11:24:38.395Z,21.09
2018-05-23T11:25:38.420Z,21.17
2018-05-23T11:26:38.450Z,21.16
2018-05-23T11:27:38.527Z,21.11
2018-05-23T11:28:38.500Z,21.05
2018-05-23T11:29:38.561Z,21.05
2018-05-23T11:30:38.552Z,21.08
2018-05-23T11:31:38.584Z,21.11
2018-05-23T11:32:38.602Z,21.02
2018-05-23T11:33:38.633Z,21.06
2018-05-23T11:34:38.662Z,21.11
2018-05-23T11:35:38.693Z,21.19
2018-05-23T11:36:38.712Z,21.09
2018-05-23T11:37:38.734Z,21.13
2018-05-23T11:38:38.761Z,21.08
2018-05-23T11:39:38.805Z,21.08
2018-05-23T11:40:38.813Z,21.04
2018-05-23T11:41:38.874Z,21.20
2018-05-23T11:42:38.872Z,21.17
2018-05-23T11:43:38.895Z,21.19
2018-05-23T11:44:38.921Z,21.17
2018-05-23T11:45:38.952Z,21.16
2018-05-23T11:46:39.006Z,21.16
2018-05-23T11:47:39.004Z,21.14
2018-05-23T11:48:39.034Z,21.23
2018-05-23T11:49:39.060Z,21.27
2018-05-23T11:50:39.085Z,21.24
2018-05-23T11:51:39.123Z,21.41
2018-05-23T11:52:39.137Z,21.39
2018-05-23T11:53:39.164Z,21.41
2018-05-23T11:54:39.255Z,21.48
2018-05-23T11:55:39.218Z,21.42
2018-05-23T11:56:39.239Z,21.39
2018-05-23T11:57:39.264Z,21.38
2018-05-23T11:58:39.295Z,21.29
2018-05-23T11:59:39.366Z,21.34
2018-05-23T12:00:39.348Z,21.30
2018-05-23T12:01:39.422Z,21.38
2018-05-23T12:02:39.408Z,21.36
2018-05-23T12:03:39.426Z,21.41
2018-05-23T12:04:39.456Z,21.39
2018-05-23T12:05:39.480Z,21.45
2018-05-23T12:06:39.517Z,21.51
2018-05-23T12:07:39.534Z,21.45
2018-05-23T12:08:39.561Z,21.53
2018-05-23T12:09:39.586Z,21.48
2018-05-23T12:10:39.759Z,21.48
2018-05-23T12:11:39.643Z,21.56
2018-05-23T12:12:39.681Z,21.60
2018-05-23T12:13:39.691Z,21.60
2018-05-23T12:14:39.721Z,21.69
2018-05-23T12:15:39.742Z,21.72
2018-05-23T12:16:39.813Z,21.78
2018-05-23T12:17:39.807Z,21.72
2018-05-23T12:18:39.818Z,21.85
2018-05-23T12:19:39.867Z,21.81
2018-05-23T12:20:39.878Z,21.74
2018-05-23T12:21:39.906Z,21.83
2018-05-23T12:22:39.935Z,21.74
2018-05-23T12:23:39.954Z,21.72
2018-05-23T12:24:39.989Z,21.75
2018-05-23T12:25:40.012Z,21.69
2018-05-23T12:26:40.040Z,21.54
2018-05-23T12:27:40.064Z,21.60
2018-05-23T12:28:40.087Z,21.59
2018-05-23T12:29:40.115Z,21.66
2018-05-23T12:30:40.140Z,21.82
2018-05-23T12:31:40.236Z,21.74
2018-05-23T12:32:40.197Z,21.72
2018-05-23T12:33:40.225Z,21.66
2018-05-23T12:34:40.252Z,21.74
2018-05-23T12:35:40.281Z,21.72
2018-05-23T12:36:40.299Z,21.67
2018-05-23T12:37:40.337Z,21.63
2018-05-23T12:38:40.363Z,21.74
2018-05-23T12:39:40.390Z,21.75
2018-05-23T12:40:40.413Z,21.76
2018-05-23T12:41:40.441Z,21.78
2018-05-23T12:42:40.476Z,21.72
2018-05-23T12:43:40.494Z,21.79
2018-05-23T12:44:40.523Z,21.90
2018-05-23T12:45:40.550Z,21.98
2018-05-23T12:46:40.567Z,21.98
2018-05-23T12:47:40.602Z,22.01
2018-05-23T12:48:40.629Z,22.07
2018-05-23T12:49:40.655Z,22.04
2018-05-23T12:50:40.686Z,21.98
2018-05-23T12:51:40.704Z,22.04
2018-05-23T12:52:40.733Z,22.13